sensor_id;sensor_type;location;lat;lon;timestamp;P1;durP1;ratioP1;P2;durP2;ratioP2
9948;SDS011;5013;51.840;8.276;2023-09-07T00:01:11;4.60;;;4.17;;
9948;SDS011;5013;51.840;8.276;2023-09-07T00:03:37;5.50;;;4.40;;
9948;SDS011;5013;51.840;8.276;2023-09-07T00:06:05;4.73;;;4.27;;
9948;SDS011;5013;51.840;8.276;2023-09-07T00:08:32;5.60;;;4.10;;
9948;SDS011;5013;51.840;8.276;2023-09-07T00:11:04;5.20;;;4.77;;
9948;SDS011;5013;51.840;8.276;2023-09-07T00:13:31;4.10;;;3.80;;
9948;SDS011;5013;51.840;8.276;2023-09-07T00:16:00;5.43;;;4.93;;
9948;SDS011;5013;51.840;8.276;2023-09-07T00:18:26;6.27;;;4.43;;
9948;SDS011;5013;51.840;8.276;2023-09-07T00:20:52;4.87;;;4.37;;
9948;SDS011;5013;51.840;8.276;2023-09-07T00:23:18;6.13;;;4.43;;
9948;SDS011;5013;51.840;8.276;2023-09-07T00:25:44;5.07;;;4.67;;
9948;SDS011;5013;51.840;8.276;2023-09-07T00:28:10;5.23;;;4.07;;
9948;SDS011;5013;51.840;8.276;2023-09-07T00:30:36;4.63;;;4.33;;
9948;SDS011;5013;51.840;8.276;2023-09-07T00:33:02;4.50;;;4.17;;
9948;SDS011;5013;51.840;8.276;2023-09-07T00:35:27;4.67;;;4.37;;
9948;SDS011;5013;51.840;8.276;2023-09-07T00:37:53;5.80;;;4.40;;
9948;SDS011;5013;51.840;8.276;2023-09-07T00:40:19;5.63;;;5.10;;
9948;SDS011;5013;51.840;8.276;2023-09-07T00:42:45;4.77;;;4.47;;
9948;SDS011;5013;51.840;8.276;2023-09-07T00:45:11;5.40;;;4.90;;
9948;SDS011;5013;51.840;8.276;2023-09-07T00:47:36;5.10;;;4.80;;
9948;SDS011;5013;51.840;8.276;2023-09-07T00:50:03;4.93;;;4.60;;
9948;SDS011;5013;51.840;8.276;2023-09-07T00:52:32;6.23;;;4.70;;
9948;SDS011;5013;51.840;8.276;2023-09-07T00:54:59;4.77;;;4.37;;
9948;SDS011;5013;51.840;8.276;2023-09-07T00:57:26;6.27;;;4.70;;
9948;SDS011;5013;51.840;8.276;2023-09-07T00:59:51;7.00;;;4.83;;
9948;SDS011;5013;51.840;8.276;2023-09-07T01:02:17;6.67;;;4.63;;
9948;SDS011;5013;51.840;8.276;2023-09-07T01:04:43;5.77;;;5.07;;
9948;SDS011;5013;51.840;8.276;2023-09-07T01:07:11;5.47;;;4.73;;
9948;SDS011;5013;51.840;8.276;2023-09-07T01:09:39;5.00;;;4.47;;
9948;SDS011;5013;51.840;8.276;2023-09-07T01:12:07;5.57;;;5.00;;
9948;SDS011;5013;51.840;8.276;2023-09-07T01:14:36;5.20;;;4.70;;
9948;SDS011;5013;51.840;8.276;2023-09-07T01:17:02;4.73;;;4.40;;
9948;SDS011;5013;51.840;8.276;2023-09-07T01:19:28;5.13;;;4.50;;
9948;SDS011;5013;51.840;8.276;2023-09-07T01:21:54;6.50;;;5.00;;
9948;SDS011;5013;51.840;8.276;2023-09-07T01:24:20;4.97;;;4.63;;
9948;SDS011;5013;51.840;8.276;2023-09-07T01:26:47;5.63;;;4.57;;
9948;SDS011;5013;51.840;8.276;2023-09-07T01:29:14;5.23;;;4.67;;
9948;SDS011;5013;51.840;8.276;2023-09-07T01:31:41;5.57;;;5.17;;
9948;SDS011;5013;51.840;8.276;2023-09-07T01:34:08;5.20;;;4.80;;
9948;SDS011;5013;51.840;8.276;2023-09-07T01:36:34;6.17;;;5.33;;
9948;SDS011;5013;51.840;8.276;2023-09-07T01:39:00;5.53;;;5.03;;
9948;SDS011;5013;51.840;8.276;2023-09-07T01:41:26;6.10;;;5.20;;
9948;SDS011;5013;51.840;8.276;2023-09-07T01:43:51;5.40;;;4.93;;
9948;SDS011;5013;51.840;8.276;2023-09-07T01:46:17;5.20;;;4.90;;
9948;SDS011;5013;51.840;8.276;2023-09-07T01:48:43;5.77;;;5.27;;
9948;SDS011;5013;51.840;8.276;2023-09-07T01:51:08;6.83;;;4.70;;
9948;SDS011;5013;51.840;8.276;2023-09-07T01:53:34;5.90;;;5.30;;
9948;SDS011;5013;51.840;8.276;2023-09-07T01:56:00;5.07;;;4.63;;
9948;SDS011;5013;51.840;8.276;2023-09-07T01:58:25;8.03;;;5.10;;
9948;SDS011;5013;51.840;8.276;2023-09-07T02:00:57;5.30;;;5.00;;
9948;SDS011;5013;51.840;8.276;2023-09-07T02:03:23;5.80;;;4.83;;
9948;SDS011;5013;51.840;8.276;2023-09-07T02:05:50;5.57;;;5.00;;
9948;SDS011;5013;51.840;8.276;2023-09-07T02:08:15;5.27;;;4.87;;
9948;SDS011;5013;51.840;8.276;2023-09-07T02:10:41;5.40;;;4.93;;
9948;SDS011;5013;51.840;8.276;2023-09-07T02:13:07;11.40;;;5.30;;
9948;SDS011;5013;51.840;8.276;2023-09-07T02:15:32;5.17;;;4.77;;
9948;SDS011;5013;51.840;8.276;2023-09-07T02:17:58;5.77;;;5.23;;
9948;SDS011;5013;51.840;8.276;2023-09-07T02:20:24;6.37;;;5.60;;
9948;SDS011;5013;51.840;8.276;2023-09-07T02:22:49;6.00;;;5.30;;
9948;SDS011;5013;51.840;8.276;2023-09-07T02:25:15;5.83;;;4.70;;
9948;SDS011;5013;51.840;8.276;2023-09-07T02:27:40;5.30;;;4.90;;
9948;SDS011;5013;51.840;8.276;2023-09-07T02:30:07;5.53;;;4.87;;
9948;SDS011;5013;51.840;8.276;2023-09-07T02:32:33;5.80;;;5.30;;
9948;SDS011;5013;51.840;8.276;2023-09-07T02:34:58;5.67;;;5.17;;
9948;SDS011;5013;51.840;8.276;2023-09-07T02:37:24;4.90;;;4.50;;
9948;SDS011;5013;51.840;8.276;2023-09-07T02:39:49;5.30;;;4.80;;
9948;SDS011;5013;51.840;8.276;2023-09-07T02:42:15;5.50;;;5.00;;
9948;SDS011;5013;51.840;8.276;2023-09-07T02:44:41;6.07;;;5.20;;
9948;SDS011;5013;51.840;8.276;2023-09-07T02:47:06;5.70;;;5.23;;
9948;SDS011;5013;51.840;8.276;2023-09-07T02:49:32;5.10;;;4.80;;
9948;SDS011;5013;51.840;8.276;2023-09-07T02:51:57;5.80;;;5.10;;
9948;SDS011;5013;51.840;8.276;2023-09-07T02:54:23;6.37;;;5.87;;
9948;SDS011;5013;51.840;8.276;2023-09-07T02:56:48;5.33;;;4.80;;
9948;SDS011;5013;51.840;8.276;2023-09-07T02:59:14;5.57;;;5.07;;
9948;SDS011;5013;51.840;8.276;2023-09-07T03:01:40;5.73;;;5.23;;
9948;SDS011;5013;51.840;8.276;2023-09-07T03:04:05;5.67;;;5.17;;
9948;SDS011;5013;51.840;8.276;2023-09-07T03:06:32;8.17;;;6.03;;
9948;SDS011;5013;51.840;8.276;2023-09-07T03:08:57;6.13;;;5.63;;
9948;SDS011;5013;51.840;8.276;2023-09-07T03:11:23;6.57;;;5.37;;
9948;SDS011;5013;51.840;8.276;2023-09-07T03:13:49;6.07;;;5.30;;
9948;SDS011;5013;51.840;8.276;2023-09-07T03:16:14;5.50;;;5.00;;
9948;SDS011;5013;51.840;8.276;2023-09-07T03:18:40;13.00;;;5.60;;
9948;SDS011;5013;51.840;8.276;2023-09-07T03:21:06;6.63;;;5.70;;
9948;SDS011;5013;51.840;8.276;2023-09-07T03:23:31;9.30;;;5.83;;
9948;SDS011;5013;51.840;8.276;2023-09-07T03:25:58;6.53;;;5.90;;
9948;SDS011;5013;51.840;8.276;2023-09-07T03:28:24;6.30;;;5.80;;
9948;SDS011;5013;51.840;8.276;2023-09-07T03:30:50;6.30;;;5.80;;
9948;SDS011;5013;51.840;8.276;2023-09-07T03:33:17;6.47;;;5.77;;
9948;SDS011;5013;51.840;8.276;2023-09-07T03:35:42;6.00;;;5.50;;
9948;SDS011;5013;51.840;8.276;2023-09-07T03:38:08;6.30;;;5.80;;
9948;SDS011;5013;51.840;8.276;2023-09-07T03:40:34;5.77;;;5.30;;
9948;SDS011;5013;51.840;8.276;2023-09-07T03:42:59;7.93;;;6.50;;
9948;SDS011;5013;51.840;8.276;2023-09-07T03:45:25;6.53;;;6.03;;
9948;SDS011;5013;51.840;8.276;2023-09-07T03:47:50;6.50;;;5.90;;
9948;SDS011;5013;51.840;8.276;2023-09-07T03:50:16;9.67;;;6.53;;
9948;SDS011;5013;51.840;8.276;2023-09-07T03:52:41;6.80;;;6.20;;
9948;SDS011;5013;51.840;8.276;2023-09-07T03:55:07;7.20;;;6.60;;
9948;SDS011;5013;51.840;8.276;2023-09-07T03:57:33;10.43;;;6.13;;
9948;SDS011;5013;51.840;8.276;2023-09-07T03:59:59;6.47;;;5.80;;
9948;SDS011;5013;51.840;8.276;2023-09-07T04:02:25;6.80;;;6.03;;
9948;SDS011;5013;51.840;8.276;2023-09-07T04:04:51;6.93;;;6.30;;
9948;SDS011;5013;51.840;8.276;2023-09-07T04:07:17;6.73;;;6.03;;
9948;SDS011;5013;51.840;8.276;2023-09-07T04:09:44;7.20;;;6.47;;
9948;SDS011;5013;51.840;8.276;2023-09-07T04:12:10;6.67;;;6.10;;
9948;SDS011;5013;51.840;8.276;2023-09-07T04:14:36;7.10;;;6.50;;
9948;SDS011;5013;51.840;8.276;2023-09-07T04:17:02;6.87;;;6.27;;
9948;SDS011;5013;51.840;8.276;2023-09-07T04:19:28;7.77;;;6.87;;
9948;SDS011;5013;51.840;8.276;2023-09-07T04:21:54;7.47;;;6.20;;
9948;SDS011;5013;51.840;8.276;2023-09-07T04:24:19;10.07;;;6.97;;
9948;SDS011;5013;51.840;8.276;2023-09-07T04:26:45;7.03;;;6.43;;
9948;SDS011;5013;51.840;8.276;2023-09-07T04:29:12;7.63;;;6.53;;
9948;SDS011;5013;51.840;8.276;2023-09-07T04:31:38;8.07;;;7.23;;
9948;SDS011;5013;51.840;8.276;2023-09-07T04:34:03;7.83;;;6.93;;
9948;SDS011;5013;51.840;8.276;2023-09-07T04:36:29;7.63;;;6.90;;
9948;SDS011;5013;51.840;8.276;2023-09-07T04:38:55;8.07;;;7.00;;
9948;SDS011;5013;51.840;8.276;2023-09-07T04:41:20;7.90;;;7.23;;
9948;SDS011;5013;51.840;8.276;2023-09-07T04:43:46;7.63;;;6.90;;
9948;SDS011;5013;51.840;8.276;2023-09-07T04:46:12;8.60;;;7.50;;
9948;SDS011;5013;51.840;8.276;2023-09-07T04:48:38;9.70;;;7.20;;
9948;SDS011;5013;51.840;8.276;2023-09-07T04:51:06;11.03;;;7.47;;
9948;SDS011;5013;51.840;8.276;2023-09-07T04:53:33;8.83;;;7.93;;
9948;SDS011;5013;51.840;8.276;2023-09-07T04:56:01;8.00;;;7.20;;
9948;SDS011;5013;51.840;8.276;2023-09-07T04:58:28;10.23;;;7.20;;
9948;SDS011;5013;51.840;8.276;2023-09-07T05:00:54;8.93;;;7.20;;
9948;SDS011;5013;51.840;8.276;2023-09-07T05:03:19;10.10;;;8.00;;
9948;SDS011;5013;51.840;8.276;2023-09-07T05:05:50;8.63;;;7.73;;
9948;SDS011;5013;51.840;8.276;2023-09-07T05:08:16;10.60;;;7.57;;
9948;SDS011;5013;51.840;8.276;2023-09-07T05:10:42;8.80;;;7.90;;
9948;SDS011;5013;51.840;8.276;2023-09-07T05:13:07;9.50;;;7.60;;
9948;SDS011;5013;51.840;8.276;2023-09-07T05:15:33;9.63;;;8.63;;
9948;SDS011;5013;51.840;8.276;2023-09-07T05:17:58;13.13;;;8.57;;
9948;SDS011;5013;51.840;8.276;2023-09-07T05:20:24;8.10;;;7.50;;
9948;SDS011;5013;51.840;8.276;2023-09-07T05:22:50;11.97;;;8.10;;
9948;SDS011;5013;51.840;8.276;2023-09-07T05:25:15;9.80;;;8.07;;
9948;SDS011;5013;51.840;8.276;2023-09-07T05:27:41;8.97;;;8.10;;
9948;SDS011;5013;51.840;8.276;2023-09-07T05:30:07;10.73;;;7.50;;
9948;SDS011;5013;51.840;8.276;2023-09-07T05:32:33;9.20;;;8.10;;
9948;SDS011;5013;51.840;8.276;2023-09-07T05:34:58;8.90;;;7.83;;
9948;SDS011;5013;51.840;8.276;2023-09-07T05:37:24;8.10;;;7.30;;
9948;SDS011;5013;51.840;8.276;2023-09-07T05:39:49;8.97;;;8.07;;
9948;SDS011;5013;51.840;8.276;2023-09-07T05:42:15;9.00;;;8.27;;
9948;SDS011;5013;51.840;8.276;2023-09-07T05:44:41;10.23;;;9.00;;
9948;SDS011;5013;51.840;8.276;2023-09-07T05:47:07;8.03;;;7.23;;
9948;SDS011;5013;51.840;8.276;2023-09-07T05:49:32;10.47;;;9.47;;
9948;SDS011;5013;51.840;8.276;2023-09-07T05:51:58;9.27;;;8.20;;
9948;SDS011;5013;51.840;8.276;2023-09-07T05:54:23;12.43;;;8.63;;
9948;SDS011;5013;51.840;8.276;2023-09-07T05:56:49;9.93;;;8.83;;
9948;SDS011;5013;51.840;8.276;2023-09-07T05:59:15;10.67;;;8.53;;
9948;SDS011;5013;51.840;8.276;2023-09-07T06:01:40;9.07;;;8.27;;
9948;SDS011;5013;51.840;8.276;2023-09-07T06:04:06;10.37;;;8.10;;
9948;SDS011;5013;51.840;8.276;2023-09-07T06:06:32;9.67;;;8.00;;
9948;SDS011;5013;51.840;8.276;2023-09-07T06:08:58;10.43;;;9.33;;
9948;SDS011;5013;51.840;8.276;2023-09-07T06:11:24;14.40;;;7.87;;
9948;SDS011;5013;51.840;8.276;2023-09-07T06:13:50;8.83;;;8.03;;
9948;SDS011;5013;51.840;8.276;2023-09-07T06:16:15;9.33;;;8.53;;
9948;SDS011;5013;51.840;8.276;2023-09-07T06:18:41;7.97;;;7.23;;
9948;SDS011;5013;51.840;8.276;2023-09-07T06:21:07;11.97;;;8.07;;
9948;SDS011;5013;51.840;8.276;2023-09-07T06:23:32;11.63;;;7.67;;
9948;SDS011;5013;51.840;8.276;2023-09-07T06:25:58;10.67;;;8.57;;
9948;SDS011;5013;51.840;8.276;2023-09-07T06:28:24;9.80;;;8.27;;
9948;SDS011;5013;51.840;8.276;2023-09-07T06:30:50;11.93;;;8.90;;
9948;SDS011;5013;51.840;8.276;2023-09-07T06:33:15;9.50;;;8.60;;
9948;SDS011;5013;51.840;8.276;2023-09-07T06:35:42;10.53;;;8.83;;
9948;SDS011;5013;51.840;8.276;2023-09-07T06:38:07;11.60;;;8.87;;
9948;SDS011;5013;51.840;8.276;2023-09-07T06:40:33;11.67;;;8.30;;
9948;SDS011;5013;51.840;8.276;2023-09-07T06:42:59;9.00;;;8.10;;
9948;SDS011;5013;51.840;8.276;2023-09-07T06:45:25;8.13;;;7.33;;
9948;SDS011;5013;51.840;8.276;2023-09-07T06:47:50;8.40;;;6.90;;
9948;SDS011;5013;51.840;8.276;2023-09-07T06:50:16;8.37;;;6.57;;
9948;SDS011;5013;51.840;8.276;2023-09-07T06:52:41;8.30;;;7.50;;
9948;SDS011;5013;51.840;8.276;2023-09-07T06:55:07;7.00;;;6.30;;
9948;SDS011;5013;51.840;8.276;2023-09-07T06:57:33;7.53;;;6.33;;
9948;SDS011;5013;51.840;8.276;2023-09-07T06:59:59;7.33;;;6.63;;
9948;SDS011;5013;51.840;8.276;2023-09-07T07:02:24;7.07;;;6.57;;
9948;SDS011;5013;51.840;8.276;2023-09-07T07:04:50;7.93;;;6.70;;
9948;SDS011;5013;51.840;8.276;2023-09-07T07:07:16;6.77;;;6.17;;
9948;SDS011;5013;51.840;8.276;2023-09-07T07:09:42;6.90;;;6.20;;
9948;SDS011;5013;51.840;8.276;2023-09-07T07:12:08;6.77;;;6.10;;
9948;SDS011;5013;51.840;8.276;2023-09-07T07:14:34;11.00;;;6.57;;
9948;SDS011;5013;51.840;8.276;2023-09-07T07:16:59;7.47;;;6.60;;
9948;SDS011;5013;51.840;8.276;2023-09-07T07:19:28;10.77;;;5.93;;
9948;SDS011;5013;51.840;8.276;2023-09-07T07:21:54;6.37;;;5.77;;
9948;SDS011;5013;51.840;8.276;2023-09-07T07:24:19;7.00;;;6.37;;
9948;SDS011;5013;51.840;8.276;2023-09-07T07:26:45;6.53;;;6.03;;
9948;SDS011;5013;51.840;8.276;2023-09-07T07:29:11;7.07;;;5.20;;
9948;SDS011;5013;51.840;8.276;2023-09-07T07:31:37;8.20;;;6.33;;
9948;SDS011;5013;51.840;8.276;2023-09-07T07:34:03;14.43;;;6.97;;
9948;SDS011;5013;51.840;8.276;2023-09-07T07:36:29;7.40;;;6.57;;
9948;SDS011;5013;51.840;8.276;2023-09-07T07:38:55;8.88;;;6.70;;
9948;SDS011;5013;51.840;8.276;2023-09-07T07:41:21;6.57;;;5.95;;
9948;SDS011;5013;51.840;8.276;2023-09-07T07:43:47;6.43;;;5.93;;
9948;SDS011;5013;51.840;8.276;2023-09-07T07:46:12;7.18;;;6.03;;
9948;SDS011;5013;51.840;8.276;2023-09-07T07:48:40;13.52;;;6.53;;
9948;SDS011;5013;51.840;8.276;2023-09-07T07:51:06;7.30;;;5.63;;
9948;SDS011;5013;51.840;8.276;2023-09-07T07:53:33;34.10;;;7.15;;
9948;SDS011;5013;51.840;8.276;2023-09-07T07:55:59;6.35;;;5.65;;
9948;SDS011;5013;51.840;8.276;2023-09-07T07:58:25;11.52;;;5.90;;
9948;SDS011;5013;51.840;8.276;2023-09-07T08:00:51;6.55;;;5.95;;
9948;SDS011;5013;51.840;8.276;2023-09-07T08:03:17;6.00;;;5.43;;
9948;SDS011;5013;51.840;8.276;2023-09-07T08:05:42;7.38;;;5.70;;
9948;SDS011;5013;51.840;8.276;2023-09-07T08:08:08;6.10;;;5.57;;
9948;SDS011;5013;51.840;8.276;2023-09-07T08:10:34;8.27;;;5.68;;
9948;SDS011;5013;51.840;8.276;2023-09-07T08:13:05;6.80;;;6.07;;
9948;SDS011;5013;51.840;8.276;2023-09-07T08:15:31;9.55;;;5.88;;
9948;SDS011;5013;51.840;8.276;2023-09-07T08:17:58;6.85;;;5.80;;
9948;SDS011;5013;51.840;8.276;2023-09-07T08:20:24;8.00;;;5.28;;
9948;SDS011;5013;51.840;8.276;2023-09-07T08:22:50;8.60;;;5.47;;
9948;SDS011;5013;51.840;8.276;2023-09-07T08:25:17;5.35;;;4.95;;
9948;SDS011;5013;51.840;8.276;2023-09-07T08:27:43;6.45;;;5.35;;
9948;SDS011;5013;51.840;8.276;2023-09-07T08:30:11;6.38;;;5.85;;
9948;SDS011;5013;51.840;8.276;2023-09-07T08:32:42;6.00;;;5.47;;
9948;SDS011;5013;51.840;8.276;2023-09-07T08:35:10;6.70;;;5.60;;
9948;SDS011;5013;51.840;8.276;2023-09-07T08:37:40;10.25;;;5.47;;
9948;SDS011;5013;51.840;8.276;2023-09-07T08:40:06;6.03;;;5.53;;
9948;SDS011;5013;51.840;8.276;2023-09-07T08:42:32;5.80;;;5.30;;
9948;SDS011;5013;51.840;8.276;2023-09-07T08:45:01;5.57;;;5.15;;
9948;SDS011;5013;51.840;8.276;2023-09-07T08:47:31;7.43;;;5.53;;
9948;SDS011;5013;51.840;8.276;2023-09-07T08:49:58;8.20;;;5.65;;
9948;SDS011;5013;51.840;8.276;2023-09-07T08:52:24;5.80;;;5.30;;
9948;SDS011;5013;51.840;8.276;2023-09-07T08:54:50;9.63;;;5.55;;
9948;SDS011;5013;51.840;8.276;2023-09-07T08:57:17;6.22;;;5.70;;
9948;SDS011;5013;51.840;8.276;2023-09-07T08:59:43;7.32;;;5.50;;
9948;SDS011;5013;51.840;8.276;2023-09-07T09:02:09;7.35;;;5.57;;
9948;SDS011;5013;51.840;8.276;2023-09-07T09:04:36;6.88;;;5.47;;
9948;SDS011;5013;51.840;8.276;2023-09-07T09:07:02;12.85;;;5.95;;
9948;SDS011;5013;51.840;8.276;2023-09-07T09:09:29;5.85;;;5.35;;
9948;SDS011;5013;51.840;8.276;2023-09-07T09:11:55;6.32;;;5.72;;
9948;SDS011;5013;51.840;8.276;2023-09-07T09:14:31;13.13;;;5.95;;
9948;SDS011;5013;51.840;8.276;2023-09-07T09:16:57;7.60;;;6.22;;
9948;SDS011;5013;51.840;8.276;2023-09-07T09:19:40;5.72;;;5.32;;
9948;SDS011;5013;51.840;8.276;2023-09-07T09:22:06;6.60;;;5.90;;
9948;SDS011;5013;51.840;8.276;2023-09-07T09:24:32;5.13;;;4.80;;
9948;SDS011;5013;51.840;8.276;2023-09-07T09:27:01;7.75;;;5.05;;
9948;SDS011;5013;51.840;8.276;2023-09-07T09:29:28;5.90;;;5.28;;
9948;SDS011;5013;51.840;8.276;2023-09-07T09:31:57;5.63;;;4.28;;
9948;SDS011;5013;51.840;8.276;2023-09-07T09:34:30;5.25;;;4.75;;
9948;SDS011;5013;51.840;8.276;2023-09-07T09:36:57;4.97;;;4.55;;
9948;SDS011;5013;51.840;8.276;2023-09-07T09:39:23;5.00;;;4.60;;
9948;SDS011;5013;51.840;8.276;2023-09-07T09:41:49;4.80;;;4.50;;
9948;SDS011;5013;51.840;8.276;2023-09-07T09:44:15;5.50;;;4.57;;
9948;SDS011;5013;51.840;8.276;2023-09-07T09:46:42;6.30;;;4.72;;
9948;SDS011;5013;51.840;8.276;2023-09-07T09:49:08;5.22;;;4.53;;
9948;SDS011;5013;51.840;8.276;2023-09-07T09:51:36;5.18;;;4.60;;
9948;SDS011;5013;51.840;8.276;2023-09-07T09:54:03;5.00;;;4.43;;
9948;SDS011;5013;51.840;8.276;2023-09-07T09:56:29;7.97;;;4.28;;
9948;SDS011;5013;51.840;8.276;2023-09-07T09:58:55;4.10;;;3.90;;
9948;SDS011;5013;51.840;8.276;2023-09-07T10:01:20;7.93;;;4.68;;
9948;SDS011;5013;51.840;8.276;2023-09-07T10:03:48;4.70;;;4.32;;
9948;SDS011;5013;51.840;8.276;2023-09-07T10:08:52;5.82;;;4.72;;
9948;SDS011;5013;51.840;8.276;2023-09-07T10:11:34;5.82;;;4.40;;
9948;SDS011;5013;51.840;8.276;2023-09-07T10:14:05;5.03;;;4.63;;
9948;SDS011;5013;51.840;8.276;2023-09-07T10:16:48;4.43;;;4.05;;
9948;SDS011;5013;51.840;8.276;2023-09-07T10:19:21;4.75;;;4.38;;
9948;SDS011;5013;51.840;8.276;2023-09-07T10:21:48;9.75;;;4.40;;
9948;SDS011;5013;51.840;8.276;2023-09-07T10:24:31;4.50;;;4.05;;
9948;SDS011;5013;51.840;8.276;2023-09-07T10:27:05;6.47;;;4.50;;
9948;SDS011;5013;51.840;8.276;2023-09-07T10:29:41;4.80;;;4.40;;
9948;SDS011;5013;51.840;8.276;2023-09-07T10:32:08;4.85;;;4.35;;
9948;SDS011;5013;51.840;8.276;2023-09-07T10:34:38;4.72;;;4.25;;
9948;SDS011;5013;51.840;8.276;2023-09-07T10:37:04;4.63;;;4.22;;
9948;SDS011;5013;51.840;8.276;2023-09-07T10:39:32;9.50;;;4.68;;
9948;SDS011;5013;51.840;8.276;2023-09-07T10:41:58;5.40;;;4.43;;
9948;SDS011;5013;51.840;8.276;2023-09-07T10:44:27;4.68;;;4.28;;
9948;SDS011;5013;51.840;8.276;2023-09-07T10:46:53;4.63;;;4.22;;
9948;SDS011;5013;51.840;8.276;2023-09-07T10:49:19;8.20;;;4.15;;
9948;SDS011;5013;51.840;8.276;2023-09-07T10:51:45;6.13;;;4.88;;
9948;SDS011;5013;51.840;8.276;2023-09-07T10:54:18;5.95;;;4.22;;
9948;SDS011;5013;51.840;8.276;2023-09-07T10:56:48;4.35;;;3.95;;
9948;SDS011;5013;51.840;8.276;2023-09-07T10:59:14;4.22;;;3.92;;
9948;SDS011;5013;51.840;8.276;2023-09-07T11:01:43;8.55;;;4.60;;
9948;SDS011;5013;51.840;8.276;2023-09-07T11:04:09;5.13;;;4.57;;
9948;SDS011;5013;51.840;8.276;2023-09-07T11:06:36;4.45;;;4.25;;
9948;SDS011;5013;51.840;8.276;2023-09-07T11:09:03;6.47;;;4.40;;
9948;SDS011;5013;51.840;8.276;2023-09-07T11:11:34;4.55;;;4.13;;
9948;SDS011;5013;51.840;8.276;2023-09-07T11:14:01;8.52;;;4.43;;
9948;SDS011;5013;51.840;8.276;2023-09-07T11:16:28;5.40;;;3.85;;
9948;SDS011;5013;51.840;8.276;2023-09-07T11:18:54;5.03;;;4.40;;
9948;SDS011;5013;51.840;8.276;2023-09-07T11:21:20;5.60;;;4.13;;
9948;SDS011;5013;51.840;8.276;2023-09-07T11:23:46;5.00;;;4.28;;
9948;SDS011;5013;51.840;8.276;2023-09-07T11:26:11;5.05;;;4.03;;
9948;SDS011;5013;51.840;8.276;2023-09-07T11:28:38;5.65;;;4.18;;
9948;SDS011;5013;51.840;8.276;2023-09-07T11:31:04;8.25;;;3.97;;
9948;SDS011;5013;51.840;8.276;2023-09-07T11:33:33;5.40;;;4.28;;
9948;SDS011;5013;51.840;8.276;2023-09-07T11:35:59;5.25;;;4.03;;
9948;SDS011;5013;51.840;8.276;2023-09-07T11:38:28;4.75;;;4.22;;
9948;SDS011;5013;51.840;8.276;2023-09-07T11:40:55;8.23;;;4.85;;
9948;SDS011;5013;51.840;8.276;2023-09-07T11:43:21;3.88;;;3.63;;
9948;SDS011;5013;51.840;8.276;2023-09-07T11:45:47;7.70;;;4.30;;
9948;SDS011;5013;51.840;8.276;2023-09-07T11:48:13;4.38;;;3.97;;
9948;SDS011;5013;51.840;8.276;2023-09-07T11:50:39;13.50;;;4.05;;
9948;SDS011;5013;51.840;8.276;2023-09-07T11:53:05;3.58;;;3.38;;
9948;SDS011;5013;51.840;8.276;2023-09-07T11:55:31;4.50;;;4.13;;
9948;SDS011;5013;51.840;8.276;2023-09-07T11:57:57;5.72;;;4.00;;
9948;SDS011;5013;51.840;8.276;2023-09-07T12:00:23;4.85;;;4.20;;
9948;SDS011;5013;51.840;8.276;2023-09-07T12:02:48;4.90;;;4.10;;
9948;SDS011;5013;51.840;8.276;2023-09-07T12:05:14;8.60;;;3.75;;
9948;SDS011;5013;51.840;8.276;2023-09-07T12:07:41;4.82;;;4.05;;
9948;SDS011;5013;51.840;8.276;2023-09-07T12:10:08;4.45;;;3.70;;
9948;SDS011;5013;51.840;8.276;2023-09-07T12:12:38;4.38;;;3.97;;
9948;SDS011;5013;51.840;8.276;2023-09-07T12:15:05;3.90;;;3.70;;
9948;SDS011;5013;51.840;8.276;2023-09-07T12:17:31;7.47;;;4.07;;
9948;SDS011;5013;51.840;8.276;2023-09-07T12:19:57;6.18;;;3.95;;
9948;SDS011;5013;51.840;8.276;2023-09-07T12:22:22;4.20;;;3.75;;
9948;SDS011;5013;51.840;8.276;2023-09-07T12:24:48;4.05;;;3.75;;
9948;SDS011;5013;51.840;8.276;2023-09-07T12:27:14;5.65;;;3.75;;
9948;SDS011;5013;51.840;8.276;2023-09-07T12:29:40;4.03;;;3.80;;
9948;SDS011;5013;51.840;8.276;2023-09-07T12:32:06;3.55;;;3.17;;
9948;SDS011;5013;51.840;8.276;2023-09-07T12:34:31;4.40;;;3.58;;
9948;SDS011;5013;51.840;8.276;2023-09-07T12:36:57;4.13;;;3.83;;
9948;SDS011;5013;51.840;8.276;2023-09-07T12:39:22;4.47;;;4.10;;
9948;SDS011;5013;51.840;8.276;2023-09-07T12:41:48;5.22;;;3.97;;
9948;SDS011;5013;51.840;8.276;2023-09-07T12:44:13;4.03;;;3.65;;
9948;SDS011;5013;51.840;8.276;2023-09-07T12:46:39;4.40;;;3.95;;
9948;SDS011;5013;51.840;8.276;2023-09-07T12:49:05;4.72;;;4.30;;
9948;SDS011;5013;51.840;8.276;2023-09-07T12:51:31;7.35;;;3.50;;
9948;SDS011;5013;51.840;8.276;2023-09-07T12:53:56;4.22;;;3.92;;
9948;SDS011;5013;51.840;8.276;2023-09-07T12:56:22;6.53;;;4.10;;
9948;SDS011;5013;51.840;8.276;2023-09-07T12:58:47;4.22;;;3.92;;
9948;SDS011;5013;51.840;8.276;2023-09-07T13:01:14;3.67;;;3.47;;
9948;SDS011;5013;51.840;8.276;2023-09-07T13:03:41;5.55;;;3.90;;
9948;SDS011;5013;51.840;8.276;2023-09-07T13:06:07;3.67;;;3.47;;
9948;SDS011;5013;51.840;8.276;2023-09-07T13:08:33;3.85;;;3.33;;
9948;SDS011;5013;51.840;8.276;2023-09-07T13:10:59;3.97;;;3.58;;
9948;SDS011;5013;51.840;8.276;2023-09-07T13:13:25;4.05;;;3.75;;
9948;SDS011;5013;51.840;8.276;2023-09-07T13:15:57;4.45;;;3.75;;
9948;SDS011;5013;51.840;8.276;2023-09-07T13:18:23;3.65;;;3.30;;
9948;SDS011;5013;51.840;8.276;2023-09-07T13:20:49;4.43;;;3.40;;
9948;SDS011;5013;51.840;8.276;2023-09-07T13:23:17;4.28;;;3.75;;
9948;SDS011;5013;51.840;8.276;2023-09-07T13:25:42;3.65;;;3.35;;
9948;SDS011;5013;51.840;8.276;2023-09-07T13:28:08;4.38;;;3.47;;
9948;SDS011;5013;51.840;8.276;2023-09-07T13:30:34;4.55;;;4.15;;
9948;SDS011;5013;51.840;8.276;2023-09-07T13:32:59;4.22;;;3.90;;
9948;SDS011;5013;51.840;8.276;2023-09-07T13:35:25;4.13;;;3.75;;
9948;SDS011;5013;51.840;8.276;2023-09-07T13:37:51;4.50;;;4.05;;
9948;SDS011;5013;51.840;8.276;2023-09-07T13:40:17;4.22;;;3.60;;
9948;SDS011;5013;51.840;8.276;2023-09-07T13:42:44;4.30;;;4.00;;
9948;SDS011;5013;51.840;8.276;2023-09-07T13:45:10;3.95;;;3.55;;
9948;SDS011;5013;51.840;8.276;2023-09-07T13:47:36;8.00;;;4.20;;
9948;SDS011;5013;51.840;8.276;2023-09-07T13:50:02;3.78;;;3.58;;
9948;SDS011;5013;51.840;8.276;2023-09-07T13:52:28;4.32;;;3.78;;
9948;SDS011;5013;51.840;8.276;2023-09-07T13:54:53;4.53;;;4.13;;
9948;SDS011;5013;51.840;8.276;2023-09-07T13:57:19;6.35;;;3.92;;
9948;SDS011;5013;51.840;8.276;2023-09-07T13:59:45;4.47;;;3.90;;
9948;SDS011;5013;51.840;8.276;2023-09-07T14:02:10;4.90;;;4.05;;
9948;SDS011;5013;51.840;8.276;2023-09-07T14:04:36;4.07;;;3.53;;
9948;SDS011;5013;51.840;8.276;2023-09-07T14:07:01;4.32;;;3.92;;
9948;SDS011;5013;51.840;8.276;2023-09-07T14:09:27;4.40;;;4.05;;
9948;SDS011;5013;51.840;8.276;2023-09-07T14:11:52;4.00;;;3.70;;
9948;SDS011;5013;51.840;8.276;2023-09-07T14:14:18;4.18;;;3.70;;
9948;SDS011;5013;51.840;8.276;2023-09-07T14:16:43;4.32;;;3.95;;
9948;SDS011;5013;51.840;8.276;2023-09-07T14:19:10;4.90;;;4.45;;
9948;SDS011;5013;51.840;8.276;2023-09-07T14:21:35;3.92;;;3.72;;
9948;SDS011;5013;51.840;8.276;2023-09-07T14:24:01;7.13;;;4.80;;
9948;SDS011;5013;51.840;8.276;2023-09-07T14:26:28;4.55;;;4.22;;
9948;SDS011;5013;51.840;8.276;2023-09-07T14:28:54;4.80;;;4.32;;
9948;SDS011;5013;51.840;8.276;2023-09-07T14:31:20;4.13;;;3.83;;
9948;SDS011;5013;51.840;8.276;2023-09-07T14:33:45;3.70;;;3.50;;
9948;SDS011;5013;51.840;8.276;2023-09-07T14:36:11;3.95;;;3.72;;
9948;SDS011;5013;51.840;8.276;2023-09-07T14:38:37;3.90;;;3.60;;
9948;SDS011;5013;51.840;8.276;2023-09-07T14:41:06;4.00;;;3.80;;
9948;SDS011;5013;51.840;8.276;2023-09-07T14:43:32;3.85;;;3.58;;
9948;SDS011;5013;51.840;8.276;2023-09-07T14:45:58;4.47;;;4.18;;
9948;SDS011;5013;51.840;8.276;2023-09-07T14:48:24;6.05;;;4.43;;
9948;SDS011;5013;51.840;8.276;2023-09-07T14:50:50;4.18;;;3.97;;
9948;SDS011;5013;51.840;8.276;2023-09-07T14:53:15;4.47;;;4.05;;
9948;SDS011;5013;51.840;8.276;2023-09-07T14:55:41;4.65;;;4.22;;
9948;SDS011;5013;51.840;8.276;2023-09-07T14:58:06;5.85;;;3.83;;
9948;SDS011;5013;51.840;8.276;2023-09-07T15:00:34;3.97;;;3.78;;
9948;SDS011;5013;51.840;8.276;2023-09-07T15:02:59;6.70;;;3.83;;
9948;SDS011;5013;51.840;8.276;2023-09-07T15:05:25;6.97;;;3.70;;
9948;SDS011;5013;51.840;8.276;2023-09-07T15:07:51;4.85;;;4.15;;
9948;SDS011;5013;51.840;8.276;2023-09-07T15:10:16;4.25;;;3.97;;
9948;SDS011;5013;51.840;8.276;2023-09-07T15:12:42;12.82;;;3.70;;